Time;durP1;ratioP1;P1;durP2;ratioP2;P2;SDS_P1;SDS_P2;PMS_P1;PMS_P2;Temp;Humidity;BMP_temperature;BMP_pressure;BME280_temperature;BME280_humidity;BME280_pressure;Samples;Min_cycle;Max_cycle;Signal;HPM_P1;HPM_P2
2024/01/17 00:02:21;;;;;;;9.63;7.33;;;0.30;33.90;;;;;;10344300;28;20226;-75
2024/01/17 00:07:27;;;;;;;11.13;7.97;;;0.30;33.80;;;;;;10345192;28;20227;-74
2024/01/17 00:12:30;;;;;;;10.50;6.77;;;0.20;33.60;;;;;;10352222;28;20265;-74
2024/01/17 00:17:35;;;;;;;9.77;6.67;;;0.10;33.90;;;;;;10345601;28;20234;-75
2024/01/17 00:22:38;;;;;;;7.57;6.13;;;-0.10;34.10;;;;;;10342727;28;20235;-75
2024/01/17 00:27:41;;;;;;;8.77;6.50;;;0.00;34.20;;;;;;10342845;28;20230;-75
2024/01/17 00:32:47;;;;;;;10.13;6.73;;;0.00;34.10;;;;;;10348297;28;20237;-75
2024/01/17 00:37:50;;;;;;;10.00;7.33;;;-0.20;34.20;;;;;;10347386;28;20984;-75
2024/01/17 00:42:55;;;;;;;10.60;7.40;;;-0.20;34.40;;;;;;10342276;28;20297;-75
2024/01/17 00:47:59;;;;;;;12.00;8.13;;;-0.10;34.40;;;;;;10344215;28;20234;-74
2024/01/17 00:53:03;;;;;;;10.83;6.33;;;-0.10;34.40;;;;;;10344842;28;20233;-75
2024/01/17 00:58:06;;;;;;;9.00;6.47;;;-0.20;34.40;;;;;;10347302;28;20674;-75
2024/01/17 01:03:10;;;;;;;9.00;6.00;;;-0.20;34.60;;;;;;10340485;28;20326;-74
2024/01/17 01:08:14;;;;;;;10.53;6.57;;;-0.20;34.80;;;;;;10346107;28;20590;-75
2024/01/17 01:13:17;;;;;;;8.17;6.47;;;-0.10;34.80;;;;;;10347677;28;20242;-75
2024/01/17 01:18:23;;;;;;;8.70;6.17;;;-0.10;34.80;;;;;;10339469;28;21758;-75
2024/01/17 01:23:27;;;;;;;7.03;5.50;;;-0.10;35.10;;;;;;10311639;28;20722;-75
2024/01/17 01:28:31;;;;;;;5.53;4.93;;;-0.10;35.00;;;;;;10334795;28;20230;-75
2024/01/17 01:33:35;;;;;;;5.73;5.13;;;-0.20;35.00;;;;;;10331190;28;20231;-74
2024/01/17 01:38:39;;;;;;;6.83;5.33;;;0.00;35.20;;;;;;10323071;28;20299;-74
2024/01/17 01:43:42;;;;;;;7.37;4.90;;;0.10;35.20;;;;;;10351489;28;20705;-75
2024/01/17 01:48:48;;;;;;;7.57;5.27;;;0.20;35.10;;;;;;10353988;28;20234;-75
2024/01/17 01:53:56;;;;;;;6.43;5.20;;;0.20;35.10;;;;;;10353738;28;20234;-75
2024/01/17 01:59:01;;;;;;;6.63;5.07;;;0.20;35.10;;;;;;10356633;28;20226;-75
2024/01/17 02:04:06;;;;;;;7.23;5.73;;;0.20;35.20;;;;;;10356248;28;20237;-75
2024/01/17 02:09:09;;;;;;;6.20;5.10;;;0.30;35.30;;;;;;10349477;28;20226;-75
2024/01/17 02:14:13;;;;;;;6.37;5.63;;;0.30;35.30;;;;;;10353993;28;20238;-75
2024/01/17 02:19:18;;;;;;;7.27;6.00;;;0.30;35.30;;;;;;10356516;28;20230;-75
2024/01/17 02:24:23;;;;;;;6.33;5.20;;;0.40;35.50;;;;;;10350738;28;20239;-75
2024/01/17 02:29:27;;;;;;;7.30;5.40;;;0.40;35.40;;;;;;10350021;28;20309;-75
2024/01/17 02:34:30;;;;;;;8.23;5.13;;;0.50;35.30;;;;;;10344825;28;20226;-75
2024/01/17 02:39:35;;;;;;;7.07;5.37;;;0.50;35.30;;;;;;10350291;28;20234;-75
2024/01/17 02:44:38;;;;;;;6.80;5.50;;;0.50;35.50;;;;;;10351935;28;20227;-75
2024/01/17 02:49:41;;;;;;;5.10;4.60;;;0.60;35.50;;;;;;10347504;28;20226;-75
2024/01/17 02:54:46;;;;;;;5.27;4.57;;;0.60;35.50;;;;;;10352787;28;20740;-75
2024/01/17 02:59:49;;;;;;;5.27;4.77;;;0.60;35.60;;;;;;10349351;28;20227;-75
2024/01/17 03:04:52;;;;;;;5.53;4.80;;;0.60;35.70;;;;;;10344715;28;20231;-75
2024/01/17 03:09:57;;;;;;;6.60;4.67;;;0.60;35.80;;;;;;10346246;28;20238;-75
2024/01/17 03:15:00;;;;;;;5.27;4.70;;;0.70;36.00;;;;;;10352170;28;20238;-75
2024/01/17 03:20:05;;;;;;;5.33;4.60;;;0.70;35.90;;;;;;10348174;28;20310;-75
2024/01/17 03:25:10;;;;;;;5.23;4.73;;;0.80;36.00;;;;;;10351159;28;20237;-75
2024/01/17 03:30:14;;;;;;;4.97;4.50;;;0.80;36.60;;;;;;10349674;28;20349;-75
2024/01/17 03:35:18;;;;;;;5.63;4.97;;;0.90;36.50;;;;;;10349268;28;20587;-75
2024/01/17 03:40:23;;;;;;;4.97;4.50;;;1.00;36.30;;;;;;10350930;28;20737;-74
2024/01/17 03:45:26;;;;;;;4.97;4.57;;;1.10;36.50;;;;;;10346867;28;20238;-75
2024/01/17 03:50:29;;;;;;;5.27;4.87;;;1.10;36.50;;;;;;10345428;28;20231;-74
2024/01/17 03:55:34;;;;;;;4.90;4.13;;;1.10;36.40;;;;;;10345430;28;20234;-75
2024/01/17 04:00:38;;;;;;;5.03;4.40;;;1.20;36.60;;;;;;10343092;28;20310;-75
2024/01/17 04:05:43;;;;;;;5.13;4.63;;;1.20;36.60;;;;;;10343186;28;20237;-75
2024/01/17 04:10:48;;;;;;;5.40;4.70;;;1.20;36.70;;;;;;10349964;28;20237;-74
2024/01/17 04:15:51;;;;;;;5.13;4.57;;;1.30;36.80;;;;;;10348664;28;20648;-75
2024/01/17 04:20:54;;;;;;;5.97;4.90;;;1.40;36.80;;;;;;10342939;28;20226;-75
2024/01/17 04:25:58;;;;;;;7.47;4.57;;;1.40;36.90;;;;;;10344392;28;20224;-75
2024/01/17 04:31:02;;;;;;;4.90;4.20;;;1.50;37.10;;;;;;10345934;28;20256;-75
2024/01/17 04:36:06;;;;;;;4.77;4.33;;;1.40;36.80;;;;;;10346966;28;20326;-75
2024/01/17 04:41:12;;;;;;;5.77;4.80;;;1.50;37.00;;;;;;10344104;28;20233;-75
2024/01/17 04:46:16;;;;;;;5.33;4.83;;;1.60;37.20;;;;;;10339019;28;20233;-75
2024/01/17 04:51:22;;;;;;;5.43;4.73;;;1.60;37.10;;;;;;10342556;28;20238;-75
2024/01/17 04:56:27;;;;;;;6.27;5.37;;;1.70;37.10;;;;;;10343922;28;20226;-75
2024/01/17 05:01:31;;;;;;;6.43;4.43;;;1.70;37.10;;;;;;10341906;28;20737;-76
2024/01/17 05:06:34;;;;;;;4.50;4.10;;;1.90;37.20;;;;;;10343813;28;20248;-75
2024/01/17 05:11:38;;;;;;;5.40;4.90;;;1.80;36.90;;;;;;10341298;28;20234;-75
2024/01/17 05:16:42;;;;;;;4.90;4.47;;;1.90;37.20;;;;;;10345855;28;20250;-75
2024/01/17 05:21:45;;;;;;;5.30;4.80;;;1.90;37.20;;;;;;10346468;28;20226;-75
2024/01/17 05:26:50;;;;;;;5.57;4.67;;;2.00;37.20;;;;;;10345018;28;20226;-75
2024/01/17 05:31:53;;;;;;;6.13;4.73;;;1.90;37.20;;;;;;10343543;28;20673;-76
2024/01/17 05:36:56;;;;;;;6.80;5.63;;;2.00;37.20;;;;;;10341065;28;20345;-76
2024/01/17 05:42:01;;;;;;;5.93;5.33;;;2.10;37.40;;;;;;10337472;28;20226;-75
2024/01/17 05:47:05;;;;;;;6.43;5.80;;;2.00;37.60;;;;;;10344920;28;20223;-75
2024/01/17 05:52:08;;;;;;;7.77;7.07;;;2.00;37.80;;;;;;10343045;28;20230;-76
2024/01/17 05:57:12;;;;;;;6.47;5.67;;;1.90;37.90;;;;;;10347952;28;20226;-79
2024/01/17 06:02:16;;;;;;;6.23;5.73;;;2.00;38.30;;;;;;10346949;28;20582;-75
2024/01/17 06:07:19;;;;;;;7.20;5.93;;;2.10;38.30;;;;;;10346377;28;20783;-75
2024/01/17 06:12:24;;;;;;;9.50;6.10;;;2.00;38.30;;;;;;10347814;28;20246;-75
2024/01/17 06:17:27;;;;;;;5.97;4.60;;;2.20;38.70;;;;;;10351335;28;20330;-75
2024/01/17 06:22:30;;;;;;;6.20;5.60;;;2.20;38.80;;;;;;10354331;28;20238;-75
2024/01/17 06:27:35;;;;;;;6.67;6.07;;;2.40;39.50;;;;;;10357802;28;20236;-76
2024/01/17 06:32:38;;;;;;;7.27;5.77;;;2.50;39.50;;;;;;10354964;28;20235;-75
2024/01/17 06:37:41;;;;;;;6.87;6.17;;;2.60;39.00;;;;;;10352095;28;20246;-75
2024/01/17 06:42:46;;;;;;;6.13;5.63;;;2.70;38.90;;;;;;10354917;28;20252;-75
2024/01/17 06:47:49;;;;;;;7.33;5.73;;;2.80;39.10;;;;;;10355116;28;20307;-75
2024/01/17 06:52:54;;;;;;;7.00;6.17;;;2.80;38.70;;;;;;10347461;28;20316;-75
2024/01/17 06:57:59;;;;;;;8.77;6.43;;;2.80;38.80;;;;;;10356092;28;20782;-76
2024/01/17 07:03:02;;;;;;;6.40;5.80;;;2.90;39.10;;;;;;10350303;28;20230;-76
2024/01/17 07:08:05;;;;;;;7.90;6.40;;;2.90;39.00;;;;;;10356754;28;20250;-76
2024/01/17 07:13:10;;;;;;;7.77;6.13;;;3.00;39.10;;;;;;10356107;28;20235;-76
2024/01/17 07:18:13;;;;;;;6.27;5.67;;;3.10;39.40;;;;;;10356989;28;20227;-76
2024/01/17 07:23:17;;;;;;;7.00;6.30;;;3.10;39.30;;;;;;10357853;28;20222;-76
2024/01/17 07:28:22;;;;;;;8.77;7.03;;;3.10;39.40;;;;;;10348415;28;20226;-74
2024/01/17 07:33:25;;;;;;;8.60;6.90;;;3.20;39.80;;;;;;10345976;28;20239;-75
2024/01/17 07:38:29;;;;;;;8.63;7.83;;;3.30;39.80;;;;;;10349050;28;20720;-75
2024/01/17 07:43:34;;;;;;;8.43;7.57;;;3.30;39.80;;;;;;10344590;28;20227;-74
2024/01/17 07:48:38;;;;;;;8.87;7.97;;;3.50;40.30;;;;;;10345234;28;21014;-74
2024/01/17 07:53:44;;;;;;;8.67;7.73;;;3.60;40.10;;;;;;10344930;28;20724;-73
2024/01/17 07:58:49;;;;;;;8.30;7.50;;;3.60;40.20;;;;;;10344505;28;20233;-73
2024/01/17 08:03:53;;;;;;;8.30;7.50;;;3.70;40.60;;;;;;10344993;28;20238;-72
2024/01/17 08:08:59;;;;;;;7.40;6.77;;;3.70;40.30;;;;;;10342672;28;20241;-72
2024/01/17 08:14:04;;;;;;;7.37;6.67;;;3.80;40.40;;;;;;10342988;28;20230;-72
2024/01/17 08:19:07;;;;;;;6.63;6.03;;;3.90;41.00;;;;;;10347478;28;20251;-72
2024/01/17 08:24:10;;;;;;;6.23;5.73;;;4.00;41.50;;;;;;10350749;28;20305;-72
2024/01/17 08:29:17;;;;;;;6.73;6.13;;;4.00;41.40;;;;;;10344193;28;20273;-72
2024/01/17 08:34:21;;;;;;;6.57;6.00;;;4.10;42.00;;;;;;10343301;28;20576;-72
2024/01/17 08:39:25;;;;;;;6.03;5.53;;;4.20;41.70;;;;;;10337973;28;20655;-72
2024/01/17 08:44:30;;;;;;;5.83;5.33;;;4.30;41.80;;;;;;10339299;28;20819;-72
2024/01/17 08:49:33;;;;;;;5.73;5.23;;;4.30;42.10;;;;;;10339638;28;20225;-72
2024/01/17 08:54:37;;;;;;;5.80;5.30;;;4.30;41.70;;;;;;10338650;28;20354;-71
2024/01/17 08:59:44;;;;;;;5.07;4.60;;;4.40;41.60;;;;;;10342068;28;20234;-71
2024/01/17 09:04:47;;;;;;;4.93;4.50;;;4.50;42.00;;;;;;10336068;28;20726;-71
2024/01/17 09:09:50;;;;;;;4.53;4.10;;;4.50;42.60;;;;;;10338805;28;20234;-72
2024/01/17 09:14:55;;;;;;;5.37;4.50;;;4.60;41.90;;;;;;10342267;28;20236;-72
2024/01/17 09:19:59;;;;;;;4.90;4.50;;;4.60;42.20;;;;;;10341710;28;20234;-72
2024/01/17 09:25:02;;;;;;;6.87;6.27;;;4.60;41.80;;;;;;10345388;28;20296;-72
2024/01/17 09:30:08;;;;;;;8.00;7.20;;;4.60;41.90;;;;;;10342219;28;20227;-72
2024/01/17 09:35:12;;;;;;;7.43;6.67;;;4.70;42.50;;;;;;10340450;28;20242;-73
2024/01/17 09:40:15;;;;;;;8.97;7.97;;;4.70;41.90;;;;;;10343887;28;20664;-73
2024/01/17 09:45:22;;;;;;;7.53;6.63;;;4.70;41.80;;;;;;10345110;28;20447;-73
2024/01/17 09:50:25;;;;;;;5.77;5.17;;;4.70;42.30;;;;;;10345550;28;20230;-73
2024/01/17 09:55:29;;;;;;;4.50;4.10;;;4.80;41.70;;;;;;10346115;28;20310;-73
2024/01/17 10:00:35;;;;;;;5.10;4.37;;;4.90;41.90;;;;;;10348123;28;20775;-73
2024/01/17 10:05:39;;;;;;;6.87;5.13;;;4.90;42.00;;;;;;10350221;28;20310;-73
2024/01/17 10:10:42;;;;;;;7.20;6.33;;;4.90;41.70;;;;;;10342171;28;20311;-72
2024/01/17 10:15:47;;;;;;;9.30;8.40;;;4.90;41.90;;;;;;10345835;28;20330;-73
2024/01/17 10:20:51;;;;;;;5.67;5.17;;;4.90;42.10;;;;;;10350428;28;20233;-73
2024/01/17 10:25:54;;;;;;;5.20;4.70;;;4.90;41.70;;;;;;10341187;28;20227;-72
2024/01/17 10:30:59;;;;;;;5.37;4.63;;;4.90;41.70;;;;;;10345135;28;20231;-73
2024/01/17 10:36:05;;;;;;;5.33;4.83;;;4.90;42.20;;;;;;10346227;28;20282;-73
2024/01/17 10:41:09;;;;;;;6.33;5.73;;;4.80;41.80;;;;;;10349686;28;20235;-73
2024/01/17 10:46:13;;;;;;;5.67;5.10;;;4.80;41.90;;;;;;10345128;28;20652;-73
2024/01/17 10:51:20;;;;;;;5.50;4.93;;;4.80;42.20;;;;;;10345424;28;20418;-73
2024/01/17 10:56:27;;;;;;;5.40;4.90;;;4.80;42.60;;;;;;10344580;28;20317;-74
2024/01/17 11:01:35;;;;;;;5.20;4.70;;;4.80;42.00;;;;;;10344588;28;20322;-74
2024/01/17 11:06:39;;;;;;;5.37;4.87;;;4.90;42.60;;;;;;10343311;28;20322;-74
2024/01/17 11:11:43;;;;;;;5.53;5.00;;;4.90;42.50;;;;;;10340979;28;20246;-74
2024/01/17 11:16:50;;;;;;;5.30;4.80;;;4.90;42.60;;;;;;10346761;28;20285;-76
2024/01/17 11:21:53;;;;;;;48.00;28.30;;;4.90;43.00;;;;;;10344733;28;20280;-76
2024/01/17 11:27:05;;;;;;;10.57;6.40;;;5.00;42.70;;;;;;10334681;28;20270;-76
2024/01/17 11:32:18;;;;;;;11.43;9.67;;;5.00;43.20;;;;;;10338412;28;20301;-74
2024/01/17 11:37:33;;;;;;;13.43;12.13;;;5.00;43.60;;;;;;10346950;28;21733;-74
2024/01/17 11:42:37;;;;;;;8.27;6.53;;;5.10;43.80;;;;;;10353505;28;20230;-75
2024/01/17 11:47:46;;;;;;;8.57;7.17;;;5.20;42.90;;;;;;10356842;28;20285;-77
2024/01/17 11:52:49;;;;;;;6.43;5.83;;;5.20;42.90;;;;;;10348757;28;20234;-76
2024/01/17 11:57:52;;;;;;;5.70;5.30;;;5.30;42.70;;;;;;10349957;28;20238;-77
2024/01/17 12:02:59;;;;;;;5.37;4.90;;;5.30;43.00;;;;;;10344233;28;20241;-76
2024/01/17 12:08:05;;;;;;;5.77;5.27;;;5.30;43.00;;;;;;10352098;28;20222;-76
2024/01/17 12:13:08;;;;;;;5.13;4.67;;;5.40;43.10;;;;;;10359535;28;20780;-75
2024/01/17 12:18:13;;;;;;;4.90;4.50;;;5.40;42.60;;;;;;10361340;28;20236;-75
2024/01/17 12:23:20;;;;;;;4.60;4.20;;;5.50;43.10;;;;;;10361624;28;20724;-79
2024/01/17 12:28:24;;;;;;;7.53;6.40;;;5.50;43.20;;;;;;10353710;28;20233;-75
2024/01/17 12:33:30;;;;;;;8.10;6.67;;;5.50;42.80;;;;;;10358091;28;20227;-75
2024/01/17 12:38:35;;;;;;;7.23;6.17;;;5.60;43.20;;;;;;10356248;28;20743;-75
2024/01/17 12:43:39;;;;;;;10.07;8.47;;;5.60;42.80;;;;;;10357145;28;20233;-75
2024/01/17 12:48:55;;;;;;;10.83;7.87;;;5.70;42.60;;;;;;10355353;28;20269;-75
2024/01/17 12:53:59;;;;;;;9.33;7.97;;;5.70;43.40;;;;;;10354563;28;20831;-75
2024/01/17 12:59:02;;;;;;;7.93;6.13;;;5.80;42.40;;;;;;10360355;28;20755;-75
2024/01/17 13:04:08;;;;;;;6.10;5.50;;;5.80;42.50;;;;;;10357737;28;20230;-75
2024/01/17 13:09:17;;;;;;;4.90;4.50;;;5.80;42.90;;;;;;10358875;28;20310;-75
2024/01/17 13:14:25;;;;;;;4.43;4.10;;;5.90;43.00;;;;;;10353051;28;20327;-77
2024/01/17 13:19:30;;;;;;;5.23;4.73;;;5.90;43.30;;;;;;10362842;28;20819;-77
2024/01/17 13:24:33;;;;;;;5.77;5.17;;;5.90;43.00;;;;;;10364802;28;20229;-75
2024/01/17 13:29:36;;;;;;;4.43;4.10;;;5.80;42.60;;;;;;10360051;28;20272;-75
2024/01/17 13:34:41;;;;;;;4.37;4.07;;;5.80;42.70;;;;;;10357338;28;20234;-75
2024/01/17 13:39:44;;;;;;;4.63;4.23;;;5.80;43.20;;;;;;10360015;28;20599;-77
2024/01/17 13:44:48;;;;;;;4.03;3.73;;;5.80;43.00;;;;;;10360379;28;20602;-76
2024/01/17 13:49:57;;;;;;;5.53;4.80;;;5.70;42.90;;;;;;10360389;28;20621;-76
2024/01/17 13:55:02;;;;;;;6.17;4.40;;;5.70;43.30;;;;;;10361378;28;20325;-79
2024/01/17 14:00:06;;;;;;;5.13;4.73;;;5.80;43.30;;;;;;10368888;28;20227;-77
2024/01/17 14:05:11;;;;;;;5.73;5.23;;;5.80;43.10;;;;;;10369541;28;20241;-74
2024/01/17 14:10:15;;;;;;;6.63;6.03;;;5.80;43.40;;;;;;10370087;28;20234;-82
2024/01/17 14:15:19;;;;;;;12.10;8.27;;;5.90;43.20;;;;;;10370307;28;20268;-81
2024/01/17 14:20:25;;;;;;;8.43;7.63;;;5.90;43.20;;;;;;10355146;28;20243;-76
2024/01/17 14:25:28;;;;;;;7.60;6.90;;;6.00;43.50;;;;;;10371266;28;20226;-76
2024/01/17 14:30:31;;;;;;;13.70;12.30;;;6.00;43.20;;;;;;10364028;28;20234;-76
2024/01/17 14:35:36;;;;;;;10.97;9.87;;;6.10;43.20;;;;;;10360808;28;20313;-77
2024/01/17 14:40:41;;;;;;;9.30;8.33;;;6.10;43.50;;;;;;10357210;28;20664;-76
2024/01/17 14:45:46;;;;;;;8.13;7.43;;;6.10;43.20;;;;;;10362227;28;20226;-76
2024/01/17 14:50:50;;;;;;;6.93;6.33;;;6.10;43.20;;;;;;10367787;28;20277;-76
2024/01/17 14:55:54;;;;;;;6.47;5.47;;;6.20;43.70;;;;;;10363781;28;21021;-76
2024/01/17 15:00:59;;;;;;;7.03;6.43;;;6.20;43.20;;;;;;10364642;28;20226;-77
2024/01/17 15:06:05;;;;;;;12.80;11.60;;;6.20;43.70;;;;;;10363519;28;20234;-76
2024/01/17 15:11:09;;;;;;;9.57;8.77;;;6.20;43.70;;;;;;10367268;28;20786;-76
2024/01/17 15:16:20;;;;;;;8.03;7.23;;;6.30;43.40;;;;;;10365080;28;20230;-76
2024/01/17 15:21:25;;;;;;;8.27;7.50;;;6.30;44.20;;;;;;10364415;28;20226;-76
2024/01/17 15:26:28;;;;;;;7.90;7.17;;;6.30;43.70;;;;;;10364522;28;20811;-76
2024/01/17 15:31:31;;;;;;;26.33;20.70;;;6.40;43.60;;;;;;10367304;28;20258;-77
2024/01/17 15:36:37;;;;;;;20.83;18.63;;;6.40;43.60;;;;;;10363893;28;20296;-76
2024/01/17 15:41:40;;;;;;;34.97;31.60;;;6.40;43.90;;;;;;10365540;28;20242;-76
2024/01/17 15:46:44;;;;;;;46.07;36.47;;;6.50;43.70;;;;;;10360444;28;20226;-77
2024/01/17 15:51:48;;;;;;;19.73;15.63;;;6.50;43.70;;;;;;10363159;28;20232;-77
2024/01/17 15:56:51;;;;;;;15.00;12.40;;;6.50;43.90;;;;;;10364120;28;20693;-77
2024/01/17 16:01:55;;;;;;;11.10;9.07;;;6.50;43.80;;;;;;10364468;28;20233;-77
2024/01/17 16:07:00;;;;;;;15.23;13.73;;;6.60;43.90;;;;;;10356933;28;20308;-77
2024/01/17 16:12:04;;;;;;;21.60;19.20;;;6.60;44.00;;;;;;10363574;28;20229;-76
2024/01/17 16:17:08;;;;;;;13.40;12.10;;;6.60;43.90;;;;;;10358213;28;20222;-77
2024/01/17 16:22:12;;;;;;;12.10;11.00;;;6.60;43.80;;;;;;10358490;28;20761;-77
2024/01/17 16:27:16;;;;;;;9.77;8.77;;;6.60;44.00;;;;;;10358837;28;20305;-76
2024/01/17 16:32:19;;;;;;;7.60;6.90;;;6.60;43.50;;;;;;10359297;28;20226;-76
2024/01/17 16:37:23;;;;;;;11.10;9.00;;;6.60;43.30;;;;;;10356932;28;20238;-78
2024/01/17 16:42:27;;;;;;;8.90;8.03;;;6.60;43.20;;;;;;10360399;28;20643;-79
2024/01/17 16:47:31;;;;;;;9.77;8.83;;;6.60;43.10;;;;;;10358296;28;20230;-78
2024/01/17 16:52:36;;;;;;;15.00;13.60;;;6.60;43.00;;;;;;10356143;28;20570;-77
2024/01/17 16:57:40;;;;;;;16.20;14.60;;;6.60;43.40;;;;;;10350056;28;20227;-78
2024/01/17 17:02:43;;;;;;;10.10;9.10;;;6.60;43.10;;;;;;10359002;28;20262;-79
2024/01/17 17:07:48;;;;;;;10.73;9.63;;;6.60;43.30;;;;;;10354944;28;20230;-78
2024/01/17 17:12:52;;;;;;;12.30;11.10;;;6.60;43.50;;;;;;10353754;28;21096;-79
2024/01/17 17:17:55;;;;;;;10.27;9.27;;;6.70;43.20;;;;;;10350199;28;20222;-78
2024/01/17 17:23:00;;;;;;;9.17;8.27;;;6.70;43.10;;;;;;10350866;28;20794;-79
2024/01/17 17:28:04;;;;;;;8.93;7.87;;;6.70;43.20;;;;;;10356833;28;20248;-78
2024/01/17 17:33:07;;;;;;;9.70;8.70;;;6.70;43.00;;;;;;10357512;28;20240;-78
2024/01/17 17:38:12;;;;;;;9.40;8.50;;;6.70;42.80;;;;;;10354842;28;20230;-79
2024/01/17 17:43:15;;;;;;;10.63;9.63;;;6.70;43.00;;;;;;10358175;28;20304;-79
2024/01/17 17:48:20;;;;;;;10.23;9.23;;;6.80;42.90;;;;;;10359041;28;20272;-79
2024/01/17 17:53:25;;;;;;;9.03;8.17;;;6.80;42.90;;;;;;10355875;28;20704;-78
2024/01/17 17:58:28;;;;;;;9.27;8.37;;;6.80;43.00;;;;;;10358398;28;20301;-79
2024/01/17 18:03:31;;;;;;;9.97;9.00;;;6.80;42.80;;;;;;10359209;28;20233;-79
2024/01/17 18:08:36;;;;;;;9.43;8.53;;;6.80;42.70;;;;;;10364473;28;20230;-79
2024/01/17 18:13:44;;;;;;;9.70;8.90;;;6.90;42.90;;;;;;10367026;28;20234;-79
2024/01/17 18:18:48;;;;;;;11.77;10.77;;;6.90;42.70;;;;;;10366757;28;20325;-78
2024/01/17 18:23:54;;;;;;;17.10;15.50;;;6.90;42.70;;;;;;10364839;28;20230;-78
2024/01/17 18:28:57;;;;;;;14.77;13.37;;;6.90;43.00;;;;;;10364969;28;20230;-77
2024/01/17 18:34:02;;;;;;;10.90;9.83;;;6.90;42.90;;;;;;10360826;28;20313;-77
2024/01/17 18:39:06;;;;;;;14.57;13.07;;;6.90;42.90;;;;;;10359766;28;20230;-77
2024/01/17 18:44:10;;;;;;;12.63;11.17;;;6.90;43.20;;;;;;10345710;28;20222;-78
2024/01/17 18:49:14;;;;;;;12.53;11.27;;;6.90;43.10;;;;;;10361191;28;20233;-79
2024/01/17 18:54:18;;;;;;;11.93;10.73;;;6.90;43.10;;;;;;10365827;28;20852;-79
2024/01/17 18:59:21;;;;;;;10.43;9.53;;;6.90;43.20;;;;;;10365518;28;20244;-79
2024/01/17 19:04:25;;;;;;;10.33;9.33;;;7.00;43.00;;;;;;10359643;28;20226;-79
2024/01/17 19:09:31;;;;;;;12.47;11.37;;;7.00;43.00;;;;;;10365136;28;20348;-79
2024/01/17 19:14:34;;;;;;;11.93;10.90;;;7.00;43.40;;;;;;10359514;28;20720;-79
2024/01/17 19:19:38;;;;;;;12.87;11.77;;;7.00;43.40;;;;;;10359535;28;20234;-79
2024/01/17 19:24:42;;;;;;;11.83;10.83;;;6.90;43.50;;;;;;10362190;28;20284;-79
2024/01/17 19:29:46;;;;;;;13.40;12.00;;;7.00;43.80;;;;;;10353942;28;20610;-79
2024/01/17 19:34:49;;;;;;;11.27;10.20;;;7.00;43.60;;;;;;10364404;28;20237;-79
2024/01/17 19:39:53;;;;;;;14.30;12.80;;;7.00;43.60;;;;;;10361263;28;20265;-79
2024/01/17 19:44:57;;;;;;;15.37;13.87;;;7.00;43.90;;;;;;10354603;28;20235;-79
2024/01/17 19:50:00;;;;;;;14.43;12.93;;;6.90;43.60;;;;;;10362134;28;20317;-79
2024/01/17 19:55:06;;;;;;;13.37;12.07;;;7.00;43.80;;;;;;10360164;28;20230;-79
2024/01/17 20:00:11;;;;;;;14.73;13.23;;;7.00;44.40;;;;;;10356933;28;20806;-79
2024/01/17 20:05:14;;;;;;;11.67;10.47;;;7.10;44.70;;;;;;10358480;28;20322;-79
2024/01/17 20:10:18;;;;;;;8.90;8.10;;;7.10;45.10;;;;;;10360205;28;20305;-76
2024/01/17 20:15:22;;;;;;;14.57;11.33;;;7.30;46.00;;;;;;10352764;28;20711;-75
2024/01/17 20:20:26;;;;;;;6.80;5.80;;;7.50;46.80;;;;;;10351866;28;20756;-76
2024/01/17 20:25:30;;;;;;;3.43;2.97;;;7.80;48.50;;;;;;10349084;28;20230;-76
2024/01/17 20:30:34;;;;;;;2.10;2.00;;;8.20;49.40;;;;;;10348236;28;20226;-77
2024/01/17 20:35:37;;;;;;;1.97;1.87;;;8.60;49.00;;;;;;10357855;28;20756;-79
2024/01/17 20:40:41;;;;;;;6.03;5.07;;;9.00;49.00;;;;;;10360130;28;20306;-79
2024/01/17 20:45:45;;;;;;;3.67;2.60;;;9.40;49.60;;;;;;10357108;28;20244;-79
2024/01/17 20:50:48;;;;;;;1.57;1.47;;;9.70;48.80;;;;;;10352514;28;20230;-77
2024/01/17 20:55:53;;;;;;;2.53;2.30;;;10.00;47.90;;;;;;10358057;28;20234;-77
2024/01/17 21:00:56;;;;;;;4.20;1.87;;;10.30;48.60;;;;;;10353774;28;20245;-78
2024/01/17 21:06:00;;;;;;;1.17;1.17;;;10.60;48.10;;;;;;10364836;28;20240;-80
2024/01/17 21:11:05;;;;;;;1.40;1.30;;;10.80;48.10;;;;;;10357313;28;20261;-79
2024/01/17 21:16:10;;;;;;;1.10;1.10;;;11.10;48.30;;;;;;10351806;28;20238;-76
2024/01/17 21:21:14;;;;;;;1.00;1.00;;;11.20;48.20;;;;;;10349431;28;20725;-76
2024/01/17 21:26:24;;;;;;;0.70;0.70;;;11.40;47.70;;;;;;10348796;28;20233;-79
2024/01/17 21:31:27;;;;;;;0.70;0.70;;;11.50;48.50;;;;;;10347556;28;20312;-80
2024/01/17 21:36:31;;;;;;;0.90;0.70;;;11.60;46.90;;;;;;10360979;28;20233;-77
2024/01/17 21:41:36;;;;;;;0.60;0.60;;;11.70;46.80;;;;;;10351998;28;20603;-78
2024/01/17 21:46:41;;;;;;;0.80;0.80;;;11.80;47.40;;;;;;10353920;28;20232;-78
2024/01/17 21:51:44;;;;;;;1.43;0.90;;;11.80;47.40;;;;;;10354420;28;20316;-80
2024/01/17 21:56:49;;;;;;;0.90;0.90;;;11.90;47.20;;;;;;10350611;28;20319;-79
2024/01/17 22:01:52;;;;;;;0.80;0.80;;;11.90;47.50;;;;;;10352083;28;20234;-78
2024/01/17 22:06:56;;;;;;;0.80;0.70;;;12.00;47.00;;;;;;10355799;28;20230;-79
2024/01/17 22:12:01;;;;;;;1.57;0.80;;;12.00;46.80;;;;;;10354099;28;20265;-77
2024/01/17 22:17:05;;;;;;;1.33;0.90;;;12.10;47.10;;;;;;10357893;28;20234;-77
2024/01/17 22:22:09;;;;;;;0.80;0.70;;;12.00;46.80;;;;;;10355203;28;20316;-77
2024/01/17 22:27:13;;;;;;;2.30;0.80;;;12.10;46.80;;;;;;10356616;28;20229;-77
2024/01/17 22:32:17;;;;;;;0.70;0.70;;;12.10;47.20;;;;;;10356626;28;20254;-77
2024/01/17 22:37:20;;;;;;;0.80;0.80;;;12.10;46.80;;;;;;10360049;28;20231;-77
2024/01/17 22:42:24;;;;;;;0.70;0.70;;;12.10;46.50;;;;;;10352488;28;20234;-77
2024/01/17 22:47:28;;;;;;;1.37;0.80;;;12.20;47.00;;;;;;10360999;28;20222;-77
2024/01/17 22:52:31;;;;;;;0.87;0.70;;;12.20;46.90;;;;;;10358309;28;20230;-76
2024/01/17 22:57:35;;;;;;;0.70;0.70;;;12.20;46.70;;;;;;10358374;28;20233;-77
2024/01/17 23:02:39;;;;;;;0.60;0.60;;;12.20;46.80;;;;;;10358952;28;20226;-77
2024/01/17 23:07:42;;;;;;;1.90;0.70;;;12.30;46.50;;;;;;10359242;28;20232;-77
2024/01/17 23:12:54;;;;;;;0.60;0.60;;;12.30;46.50;;;;;;10362550;28;20230;-77
2024/01/17 23:17:58;;;;;;;0.80;0.80;;;12.30;46.90;;;;;;10363547;28;20333;-77
2024/01/17 23:23:01;;;;;;;0.77;0.70;;;12.30;46.60;;;;;;10363705;28;20250;-77
2024/01/17 23:28:06;;;;;;;0.60;0.60;;;12.30;46.70;;;;;;10362909;28;20808;-77
2024/01/17 23:33:09;;;;;;;0.60;0.60;;;12.30;47.20;;;;;;10362048;28;20309;-77
2024/01/17 23:38:13;;;;;;;1.00;0.60;;;12.30;47.20;;;;;;10356977;28;20230;-77
2024/01/17 23:43:17;;;;;;;0.60;0.60;;;12.20;46.50;;;;;;10363010;28;20244;-77
2024/01/17 23:48:21;;;;;;;1.10;0.60;;;12.20;46.90;;;;;;10361663;28;20226;-77
2024/01/17 23:53:24;;;;;;;0.60;0.60;;;12.20;46.70;;;;;;10357652;28;20230;-77
2024/01/17 23:58:29;;;;;;;0.57;0.57;;;12.20;46.70;;;;;;10359147;28;20724;-77
